Time;durP1;ratioP1;P1;durP2;ratioP2;P2;SDS_P1;SDS_P2;PMS_P1;PMS_P2;Temp;Humidity;BMP_temperature;BMP_pressure;BME280_temperature;BME280_humidity;BME280_pressure;Samples;Min_cycle;Max_cycle;Signal;HPM_P1;HPM_P2
2021/07/14 00:00:47;;;;;;;11.40;6.40;;;;;;;;;;5073701;28;20039;-51
2021/07/14 00:03:13;;;;;;;8.07;5.38;;;;;;;;;;5074627;28;20173;-52
2021/07/14 00:05:40;;;;;;;9.27;6.05;;;;;;;;;;5074492;28;20458;-50
2021/07/14 00:08:08;;;;;;;10.35;7.18;;;;;;;;;;5074112;28;20083;-50
2021/07/14 00:10:34;;;;;;;11.90;6.65;;;;;;;;;;5073073;28;20025;-50
2021/07/14 00:13:20;;;;;;;14.15;8.52;;;;;;;;;;5074819;28;20024;-49
2021/07/14 00:24:02;;;;;;;11.68;8.43;;;;;;;;;;5073985;28;20035;-50
2021/07/14 00:26:28;;;;;;;10.80;7.70;;;;;;;;;;5073918;28;20456;-50
2021/07/14 00:28:54;;;;;;;10.27;7.72;;;;;;;;;;5073956;28;20534;-51
2021/07/14 00:31:21;;;;;;;12.95;8.60;;;;;;;;;;5073754;28;20021;-51
2021/07/14 00:33:47;;;;;;;12.60;8.85;;;;;;;;;;5074004;28;20024;-49
2021/07/14 00:36:14;;;;;;;11.57;7.93;;;;;;;;;;5066761;28;20413;-51
2021/07/14 00:38:40;;;;;;;12.50;7.50;;;;;;;;;;5073313;28;20415;-50
2021/07/14 00:41:06;;;;;;;10.82;6.93;;;;;;;;;;5072446;28;20104;-52
2021/07/14 00:43:32;;;;;;;8.38;5.78;;;;;;;;;;5073799;28;20028;-51
2021/07/14 00:46:08;;;;;;;9.57;5.55;;;;;;;;;;5073872;28;20039;-52
2021/07/14 00:48:34;;;;;;;7.05;5.15;;;;;;;;;;5073376;28;20021;-50
2021/07/14 00:51:00;;;;;;;11.18;5.47;;;;;;;;;;5073563;28;20051;-53
2021/07/14 00:53:26;;;;;;;9.35;5.55;;;;;;;;;;5073222;28;20025;-49
2021/07/14 00:55:52;;;;;;;6.97;4.97;;;;;;;;;;5073503;28;20470;-50
2021/07/14 00:58:18;;;;;;;8.10;5.18;;;;;;;;;;5073099;28;20020;-51
2021/07/14 01:00:44;;;;;;;13.00;5.28;;;;;;;;;;5073379;28;20104;-49
2021/07/14 01:03:12;;;;;;;8.85;5.05;;;;;;;;;;5073381;28;20437;-51
2021/07/14 01:05:40;;;;;;;7.95;4.88;;;;;;;;;;5073414;28;20029;-51
2021/07/14 01:08:06;;;;;;;7.88;4.18;;;;;;;;;;5071710;28;20071;-52
2021/07/14 01:10:36;;;;;;;7.85;4.43;;;;;;;;;;5073689;28;20391;-51
2021/07/14 01:13:07;;;;;;;7.75;4.15;;;;;;;;;;5074159;28;20024;-52
2021/07/14 01:15:37;;;;;;;10.13;4.32;;;;;;;;;;5072364;28;20028;-52
2021/07/14 01:18:07;;;;;;;10.27;4.68;;;;;;;;;;5072800;28;20070;-52
2021/07/14 01:20:45;;;;;;;10.73;4.95;;;;;;;;;;5071258;28;20036;-49
2021/07/14 01:23:32;;;;;;;10.38;4.85;;;;;;;;;;5071140;28;20440;-50
2021/07/14 01:26:06;;;;;;;8.77;4.50;;;;;;;;;;5049484;28;20036;-51
2021/07/14 01:28:34;;;;;;;10.27;5.13;;;;;;;;;;5072325;28;20381;-50
2021/07/14 01:31:01;;;;;;;9.55;4.05;;;;;;;;;;5072617;28;20448;-50
2021/07/14 01:33:29;;;;;;;13.40;4.85;;;;;;;;;;5070520;28;20066;-49
2021/07/14 01:35:56;;;;;;;11.02;5.43;;;;;;;;;;5067472;28;20448;-49
2021/07/14 01:38:24;;;;;;;9.98;5.15;;;;;;;;;;5072236;28;20028;-49
2021/07/14 01:40:50;;;;;;;9.95;5.00;;;;;;;;;;5072314;28;20119;-51
2021/07/14 01:43:17;;;;;;;7.80;5.82;;;;;;;;;;5072424;28;20476;-51
2021/07/14 01:45:43;;;;;;;10.07;5.13;;;;;;;;;;5072588;28;20556;-50
2021/07/14 01:48:10;;;;;;;11.60;5.55;;;;;;;;;;5071425;28;20028;-49
2021/07/14 01:50:37;;;;;;;20.17;6.18;;;;;;;;;;5072531;28;20028;-51
2021/07/14 01:53:05;;;;;;;10.00;4.97;;;;;;;;;;5072348;28;20096;-50
2021/07/14 01:55:32;;;;;;;9.07;5.28;;;;;;;;;;5072244;28;20103;-50
2021/07/14 01:57:59;;;;;;;11.55;6.18;;;;;;;;;;5071957;28;20146;-51
2021/07/14 02:00:25;;;;;;;11.65;5.75;;;;;;;;;;5072497;28;20032;-50
2021/07/14 02:03:04;;;;;;;11.20;5.63;;;;;;;;;;5072342;28;20102;-52
2021/07/14 02:05:31;;;;;;;9.43;5.57;;;;;;;;;;5072365;28;20029;-51
2021/07/14 02:07:58;;;;;;;10.50;5.60;;;;;;;;;;5071698;28;20052;-50
2021/07/14 02:10:24;;;;;;;9.73;5.97;;;;;;;;;;5072604;28;20540;-51
2021/07/14 02:12:51;;;;;;;14.80;6.03;;;;;;;;;;5072662;28;20024;-54
2021/07/14 02:15:17;;;;;;;10.90;6.45;;;;;;;;;;5070164;28;20503;-55
2021/07/14 02:17:46;;;;;;;12.38;7.03;;;;;;;;;;5071916;28;20078;-55
2021/07/14 02:20:15;;;;;;;15.85;7.00;;;;;;;;;;5070615;28;20051;-54
2021/07/14 02:22:41;;;;;;;10.32;6.63;;;;;;;;;;5070683;28;20036;-54
2021/07/14 02:25:08;;;;;;;11.27;6.70;;;;;;;;;;5071353;28;20075;-49
2021/07/14 02:27:34;;;;;;;12.95;6.90;;;;;;;;;;5072039;28;20194;-51
2021/07/14 02:30:00;;;;;;;10.90;7.13;;;;;;;;;;5071994;28;20033;-50
2021/07/14 02:32:26;;;;;;;10.57;7.65;;;;;;;;;;5072152;28;20029;-50
2021/07/14 02:34:55;;;;;;;14.55;8.50;;;;;;;;;;5071813;28;20025;-50
2021/07/14 02:37:31;;;;;;;11.98;7.90;;;;;;;;;;5066292;28;20492;-50
2021/07/14 02:39:58;;;;;;;11.63;7.70;;;;;;;;;;5068484;28;20047;-51
2021/07/14 02:42:29;;;;;;;13.70;8.52;;;;;;;;;;5072122;28;20472;-52
2021/07/14 02:44:57;;;;;;;14.13;8.68;;;;;;;;;;5071901;28;20033;-50
2021/07/14 02:47:24;;;;;;;15.98;9.30;;;;;;;;;;5071877;28;20031;-52
2021/07/14 02:49:50;;;;;;;14.05;8.30;;;;;;;;;;5071378;28;20433;-51
2021/07/14 02:52:17;;;;;;;11.85;8.00;;;;;;;;;;5069394;28;20052;-52
2021/07/14 02:54:45;;;;;;;13.90;8.30;;;;;;;;;;5071724;28;20043;-54
2021/07/14 02:57:14;;;;;;;14.93;8.75;;;;;;;;;;5071673;28;20029;-53
2021/07/14 02:59:41;;;;;;;15.05;8.75;;;;;;;;;;5074380;28;20116;-54
2021/07/14 03:02:08;;;;;;;11.32;8.73;;;;;;;;;;5075862;28;20037;-51
2021/07/14 03:04:41;;;;;;;13.80;9.63;;;;;;;;;;5075611;28;20157;-50
2021/07/14 03:07:08;;;;;;;17.13;8.35;;;;;;;;;;5075678;28;20408;-50
2021/07/14 03:09:38;;;;;;;10.63;8.30;;;;;;;;;;5074741;28;20551;-50
2021/07/14 03:12:05;;;;;;;14.88;8.82;;;;;;;;;;5075597;28;20025;-50
2021/07/14 03:14:31;;;;;;;10.73;8.32;;;;;;;;;;5073486;28;20098;-55
2021/07/14 03:16:57;;;;;;;13.82;7.85;;;;;;;;;;5075407;28;20460;-51
2021/07/14 03:19:24;;;;;;;12.95;7.32;;;;;;;;;;5075097;28;20099;-49
2021/07/14 03:21:50;;;;;;;12.68;8.18;;;;;;;;;;5072988;28;20476;-49
2021/07/14 03:24:17;;;;;;;11.20;7.47;;;;;;;;;;5075437;28;20074;-50
2021/07/14 03:26:43;;;;;;;11.70;7.75;;;;;;;;;;5075096;28;20033;-50
2021/07/14 03:29:11;;;;;;;13.18;7.88;;;;;;;;;;5074737;28;20056;-50
2021/07/14 03:31:38;;;;;;;17.95;8.30;;;;;;;;;;5074601;28;20036;-54
2021/07/14 03:34:04;;;;;;;13.95;7.53;;;;;;;;;;5073413;28;20104;-50
2021/07/14 03:36:31;;;;;;;10.50;6.80;;;;;;;;;;5068934;28;20396;-53
2021/07/14 03:38:57;;;;;;;17.52;7.15;;;;;;;;;;5074789;28;20426;-52
2021/07/14 03:41:23;;;;;;;10.55;6.68;;;;;;;;;;5074656;28;20032;-55
2021/07/14 03:43:51;;;;;;;13.60;7.22;;;;;;;;;;5074617;28;20020;-50
2021/07/14 03:46:17;;;;;;;11.48;6.40;;;;;;;;;;5074489;28;20475;-50
2021/07/14 03:48:44;;;;;;;11.88;6.60;;;;;;;;;;5074524;28;20100;-49
2021/07/14 03:51:10;;;;;;;15.82;7.55;;;;;;;;;;5074721;28;20028;-50
2021/07/14 03:53:37;;;;;;;15.35;7.40;;;;;;;;;;5074915;28;20028;-50
2021/07/14 03:56:04;;;;;;;17.10;8.23;;;;;;;;;;5074671;28;20059;-55
2021/07/14 03:58:30;;;;;;;13.00;6.97;;;;;;;;;;5074022;28;20021;-50
2021/07/14 04:00:56;;;;;;;15.95;7.63;;;;;;;;;;5074209;28;20032;-49
2021/07/14 04:03:27;;;;;;;18.75;8.70;;;;;;;;;;5074563;28;20024;-51
2021/07/14 04:06:00;;;;;;;22.42;11.07;;;;;;;;;;5073854;28;20059;-50
2021/07/14 04:08:31;;;;;;;23.08;11.00;;;;;;;;;;5073677;28;20399;-50
2021/07/14 04:10:57;;;;;;;14.60;9.15;;;;;;;;;;5073906;28;20121;-52
2021/07/14 04:13:23;;;;;;;20.00;10.13;;;;;;;;;;5074004;28;20449;-50
2021/07/14 04:15:49;;;;;;;20.27;11.15;;;;;;;;;;5074440;28;20055;-53
2021/07/14 04:18:15;;;;;;;22.80;10.70;;;;;;;;;;5073995;28;20052;-49
2021/07/14 04:20:42;;;;;;;17.33;10.23;;;;;;;;;;5074354;28;20098;-52
2021/07/14 04:23:09;;;;;;;18.67;10.57;;;;;;;;;;5072821;28;20033;-50
2021/07/14 04:25:35;;;;;;;26.35;13.40;;;;;;;;;;5074936;28;20030;-53
2021/07/14 04:28:01;;;;;;;27.55;11.65;;;;;;;;;;5073273;28;20059;-51
2021/07/14 04:30:27;;;;;;;19.30;10.68;;;;;;;;;;5074630;28;20052;-53
2021/07/14 04:32:53;;;;;;;19.65;11.50;;;;;;;;;;5074280;28;20515;-50
2021/07/14 04:35:19;;;;;;;26.25;13.13;;;;;;;;;;5073024;28;20032;-49
2021/07/14 04:37:47;;;;;;;26.48;12.93;;;;;;;;;;5068763;28;20032;-54
2021/07/14 04:40:13;;;;;;;25.77;13.10;;;;;;;;;;5073999;28;20021;-50
2021/07/14 04:42:39;;;;;;;23.42;12.05;;;;;;;;;;5073186;28;20543;-50
2021/07/14 04:45:05;;;;;;;27.35;13.60;;;;;;;;;;5073837;28;20044;-50
2021/07/14 04:47:32;;;;;;;26.23;14.23;;;;;;;;;;5073482;28;20531;-50
2021/07/14 04:49:58;;;;;;;23.27;12.63;;;;;;;;;;5072750;28;20021;-50
2021/07/14 04:52:24;;;;;;;22.10;12.50;;;;;;;;;;5073438;28;20403;-52
2021/07/14 04:54:50;;;;;;;24.98;12.20;;;;;;;;;;5073297;28;20028;-51
2021/07/14 04:57:16;;;;;;;20.35;10.98;;;;;;;;;;5072961;28;20017;-52
2021/07/14 04:59:42;;;;;;;25.42;14.00;;;;;;;;;;5073026;28;20548;-50
2021/07/14 05:02:08;;;;;;;23.05;12.73;;;;;;;;;;5073384;28;20029;-51
2021/07/14 05:04:34;;;;;;;25.85;13.05;;;;;;;;;;5073319;28;20464;-50
2021/07/14 05:07:01;;;;;;;24.08;13.27;;;;;;;;;;5073466;28;20034;-50
2021/07/14 05:09:27;;;;;;;19.05;11.82;;;;;;;;;;5072821;28;20403;-50
2021/07/14 05:11:53;;;;;;;25.35;13.57;;;;;;;;;;5075086;28;20043;-49
2021/07/14 05:14:20;;;;;;;25.15;14.23;;;;;;;;;;5063197;28;20059;-51
2021/07/14 05:16:46;;;;;;;21.48;12.55;;;;;;;;;;5073103;28;20032;-50
2021/07/14 05:19:14;;;;;;;21.30;13.00;;;;;;;;;;5072868;28;20071;-53
2021/07/14 05:21:40;;;;;;;21.80;13.85;;;;;;;;;;5071252;28;20028;-50
2021/07/14 05:24:06;;;;;;;24.40;13.05;;;;;;;;;;5072721;28;20082;-51
2021/07/14 05:26:32;;;;;;;22.98;13.40;;;;;;;;;;5072714;28;20031;-54
2021/07/14 05:28:58;;;;;;;22.90;14.13;;;;;;;;;;5071552;28;20028;-50
2021/07/14 05:31:24;;;;;;;24.98;14.05;;;;;;;;;;5072594;28;20592;-51
2021/07/14 05:33:50;;;;;;;25.10;15.20;;;;;;;;;;5072957;28;20023;-50
2021/07/14 05:36:17;;;;;;;32.00;14.98;;;;;;;;;;5066606;28;20380;-53
2021/07/14 05:38:43;;;;;;;23.40;15.82;;;;;;;;;;5071968;28;20029;-51
2021/07/14 05:41:10;;;;;;;21.13;12.63;;;;;;;;;;5072703;28;20054;-54
2021/07/14 05:43:36;;;;;;;24.23;14.15;;;;;;;;;;5070764;28;20118;-51
2021/07/14 05:46:03;;;;;;;25.30;12.80;;;;;;;;;;5072419;28;20028;-51
2021/07/14 05:48:29;;;;;;;22.73;12.82;;;;;;;;;;5072074;28;20524;-50
2021/07/14 05:50:56;;;;;;;24.90;14.82;;;;;;;;;;5072359;28;20120;-49
2021/07/14 05:53:23;;;;;;;24.67;13.20;;;;;;;;;;5072130;28;20033;-50
2021/07/14 05:55:49;;;;;;;24.55;12.90;;;;;;;;;;5072488;28;20024;-50
2021/07/14 05:58:15;;;;;;;19.42;11.73;;;;;;;;;;5071871;28;20420;-52
2021/07/14 06:00:41;;;;;;;23.67;12.77;;;;;;;;;;5071598;28;20048;-51
2021/07/14 06:03:07;;;;;;;17.98;12.65;;;;;;;;;;5072413;28;20017;-50
2021/07/14 06:05:34;;;;;;;20.60;11.77;;;;;;;;;;5072099;28;20031;-50
2021/07/14 06:08:00;;;;;;;20.20;13.50;;;;;;;;;;5070872;28;20424;-50
2021/07/14 06:10:26;;;;;;;20.25;13.25;;;;;;;;;;5073113;28;20032;-51
2021/07/14 06:12:56;;;;;;;24.52;13.00;;;;;;;;;;5071942;28;20021;-51
2021/07/14 06:15:23;;;;;;;18.90;13.10;;;;;;;;;;5069315;28;20025;-51
2021/07/14 06:17:49;;;;;;;13.07;10.73;;;;;;;;;;5071954;28;20021;-49
2021/07/14 06:20:15;;;;;;;18.40;12.98;;;;;;;;;;5072046;28;20431;-50
2021/07/14 06:22:41;;;;;;;25.00;12.85;;;;;;;;;;5069963;28;20082;-50
2021/07/14 06:25:09;;;;;;;22.88;13.27;;;;;;;;;;5071771;28;20382;-50
2021/07/14 06:27:35;;;;;;;19.13;12.43;;;;;;;;;;5071929;28;20471;-54
2021/07/14 06:30:05;;;;;;;20.13;14.07;;;;;;;;;;5071871;28;20028;-50
2021/07/14 06:32:32;;;;;;;24.58;14.43;;;;;;;;;;5070574;28;20090;-52
2021/07/14 06:34:58;;;;;;;22.77;13.82;;;;;;;;;;5071285;28;20345;-53
2021/07/14 06:37:24;;;;;;;20.42;13.82;;;;;;;;;;5065659;28;20115;-53
2021/07/14 06:39:50;;;;;;;24.92;13.45;;;;;;;;;;5071428;28;20025;-51
2021/07/14 06:42:16;;;;;;;18.92;12.60;;;;;;;;;;5071971;28;20035;-54
2021/07/14 06:44:42;;;;;;;21.13;13.05;;;;;;;;;;5068955;28;20543;-53
2021/07/14 06:47:08;;;;;;;21.45;14.50;;;;;;;;;;5071758;28;20103;-52
2021/07/14 06:49:34;;;;;;;23.10;14.02;;;;;;;;;;5071229;28;20205;-50
2021/07/14 06:52:00;;;;;;;24.52;14.27;;;;;;;;;;5071658;28;20134;-53
2021/07/14 06:54:27;;;;;;;20.88;14.43;;;;;;;;;;5069151;28;20055;-52
2021/07/14 06:56:52;;;;;;;19.73;12.85;;;;;;;;;;5071177;28;20333;-51
2021/07/14 06:59:18;;;;;;;27.35;13.70;;;;;;;;;;5071366;28;20054;-51
2021/07/14 07:01:44;;;;;;;22.08;14.02;;;;;;;;;;5071711;28;20024;-50
2021/07/14 07:04:10;;;;;;;19.67;12.65;;;;;;;;;;5068227;28;20024;-50
2021/07/14 07:06:36;;;;;;;22.23;14.23;;;;;;;;;;5071574;28;20090;-54
2021/07/14 07:09:04;;;;;;;20.15;13.75;;;;;;;;;;5071270;28;20049;-52
2021/07/14 07:11:34;;;;;;;17.00;12.15;;;;;;;;;;5072213;28;20029;-50
2021/07/14 07:14:00;;;;;;;22.83;13.07;;;;;;;;;;5071356;28;20645;-51
2021/07/14 07:16:26;;;;;;;16.15;12.23;;;;;;;;;;5069195;28;20048;-53
2021/07/14 07:18:52;;;;;;;19.65;12.85;;;;;;;;;;5071072;28;20020;-53
2021/07/14 07:21:18;;;;;;;14.93;10.88;;;;;;;;;;5071610;28;20033;-55
2021/07/14 07:23:45;;;;;;;18.90;12.88;;;;;;;;;;5069576;28;20052;-53
2021/07/14 07:26:12;;;;;;;14.13;10.55;;;;;;;;;;5071489;28;20036;-52
2021/07/14 07:28:42;;;;;;;16.50;11.27;;;;;;;;;;5066692;28;20021;-53
2021/07/14 07:31:09;;;;;;;16.70;11.05;;;;;;;;;;5065591;28;20043;-50
2021/07/14 07:33:35;;;;;;;15.65;10.50;;;;;;;;;;5070073;28;20503;-50
2021/07/14 07:36:01;;;;;;;16.95;10.40;;;;;;;;;;5065333;28;20057;-50
2021/07/14 07:38:27;;;;;;;17.73;10.32;;;;;;;;;;5071002;28;20079;-50
2021/07/14 07:40:54;;;;;;;14.60;10.00;;;;;;;;;;5071762;28;20029;-50
2021/07/14 07:43:21;;;;;;;13.68;9.25;;;;;;;;;;5069978;28;20111;-52
2021/07/14 07:45:47;;;;;;;12.02;9.05;;;;;;;;;;5071539;28;20121;-50
2021/07/14 07:48:13;;;;;;;11.25;8.48;;;;;;;;;;5074549;28;20472;-53
2021/07/14 07:50:39;;;;;;;12.82;7.70;;;;;;;;;;5074792;28;20428;-56
2021/07/14 07:53:05;;;;;;;11.25;7.50;;;;;;;;;;5074437;28;20059;-52
2021/07/14 07:55:31;;;;;;;12.98;8.20;;;;;;;;;;5074777;28;20074;-53
2021/07/14 07:57:57;;;;;;;11.75;6.95;;;;;;;;;;5074107;28;20532;-51
2021/07/14 08:00:23;;;;;;;14.13;7.38;;;;;;;;;;5073673;28;20548;-51
2021/07/14 08:02:49;;;;;;;8.93;7.10;;;;;;;;;;5074398;28;20040;-51
2021/07/14 08:05:15;;;;;;;7.43;6.50;;;;;;;;;;5074808;28;20021;-51
2021/07/14 08:07:41;;;;;;;11.90;6.43;;;;;;;;;;5073547;28;20052;-54
2021/07/14 08:10:09;;;;;;;12.90;6.82;;;;;;;;;;5075405;28;20074;-51
2021/07/14 08:12:35;;;;;;;9.23;6.32;;;;;;;;;;5062604;28;20024;-49
2021/07/14 08:15:02;;;;;;;9.95;6.82;;;;;;;;;;5074043;28;20090;-50
2021/07/14 08:17:28;;;;;;;9.20;6.53;;;;;;;;;;5073489;28;20843;-54
2021/07/14 08:19:54;;;;;;;10.05;7.38;;;;;;;;;;5073947;28;20020;-51
2021/07/14 08:22:20;;;;;;;8.07;6.25;;;;;;;;;;5072769;28;20041;-51
2021/07/14 08:24:49;;;;;;;10.32;6.13;;;;;;;;;;5074263;28;20031;-51
2021/07/14 08:27:15;;;;;;;11.27;6.80;;;;;;;;;;5074278;28;20035;-51
2021/07/14 08:29:41;;;;;;;12.98;7.60;;;;;;;;;;5073835;28;20024;-52
2021/07/14 08:32:07;;;;;;;10.75;6.72;;;;;;;;;;5072918;28;20027;-49
2021/07/14 08:34:34;;;;;;;10.18;7.22;;;;;;;;;;5073790;28;20048;-52
2021/07/14 08:37:00;;;;;;;8.55;6.70;;;;;;;;;;5068913;28;20029;-52
2021/07/14 08:39:26;;;;;;;10.07;6.32;;;;;;;;;;5073377;28;20021;-53
2021/07/14 08:41:53;;;;;;;15.93;7.43;;;;;;;;;;5072795;28;20031;-51
2021/07/14 08:44:20;;;;;;;11.27;6.85;;;;;;;;;;5072661;28;20494;-50
2021/07/14 08:46:46;;;;;;;7.78;6.47;;;;;;;;;;5073945;28;20032;-54
2021/07/14 08:49:13;;;;;;;9.88;7.05;;;;;;;;;;5073083;28;20048;-52
2021/07/14 08:51:39;;;;;;;10.85;6.82;;;;;;;;;;5073727;28;20025;-50
2021/07/14 08:54:06;;;;;;;7.70;6.40;;;;;;;;;;5075772;28;20108;-50
2021/07/14 08:56:34;;;;;;;9.77;6.60;;;;;;;;;;5073185;28;20418;-53
2021/07/14 08:59:00;;;;;;;10.63;6.50;;;;;;;;;;5072869;28;20074;-55
2021/07/14 09:01:26;;;;;;;9.65;6.63;;;;;;;;;;5073486;28;20162;-55
2021/07/14 09:03:52;;;;;;;11.05;7.18;;;;;;;;;;5073012;28;20111;-51
2021/07/14 09:06:18;;;;;;;9.13;6.53;;;;;;;;;;5073486;28;20025;-50
2021/07/14 09:08:44;;;;;;;9.07;6.82;;;;;;;;;;5072620;28;20622;-51
2021/07/14 09:11:10;;;;;;;12.10;7.00;;;;;;;;;;5074241;28;20031;-53
2021/07/14 09:13:37;;;;;;;9.27;7.25;;;;;;;;;;5072223;28;20108;-51
2021/07/14 09:16:04;;;;;;;14.60;7.53;;;;;;;;;;5072445;28;20028;-52
2021/07/14 09:18:31;;;;;;;10.95;7.72;;;;;;;;;;5072477;28;20662;-50
2021/07/14 09:20:58;;;;;;;8.85;6.88;;;;;;;;;;5073218;28;20028;-51
2021/07/14 09:23:25;;;;;;;8.98;6.45;;;;;;;;;;5071645;28;20461;-53
2021/07/14 09:25:54;;;;;;;17.85;6.80;;;;;;;;;;5072640;28;20034;-54
2021/07/14 09:28:22;;;;;;;11.30;6.63;;;;;;;;;;5072811;28;20029;-54
2021/07/14 09:30:55;;;;;;;11.52;7.40;;;;;;;;;;5072828;28;20029;-50
2021/07/14 09:33:21;;;;;;;8.18;6.85;;;;;;;;;;5072692;28;20468;-52
2021/07/14 09:35:50;;;;;;;10.98;6.57;;;;;;;;;;5067774;28;20096;-51
2021/07/14 09:38:24;;;;;;;9.98;6.32;;;;;;;;;;5072768;28;20063;-51
2021/07/14 09:40:54;;;;;;;12.13;6.40;;;;;;;;;;5072641;28;20029;-48
2021/07/14 09:43:21;;;;;;;10.10;6.47;;;;;;;;;;5071399;28;20060;-49
2021/07/14 09:45:48;;;;;;;9.52;6.28;;;;;;;;;;5072434;28;20082;-49
2021/07/14 09:48:16;;;;;;;9.20;6.20;;;;;;;;;;5072083;28;20098;-53
2021/07/14 09:50:48;;;;;;;8.77;6.15;;;;;;;;;;5072159;28;20171;-49
2021/07/14 09:53:19;;;;;;;5.85;5.35;;;;;;;;;;5072802;28;20031;-48
2021/07/14 09:55:44;;;;;;;7.93;6.05;;;;;;;;;;5072132;28;20021;-48
2021/07/14 09:58:12;;;;;;;10.90;6.80;;;;;;;;;;5072057;28;20036;-48
2021/07/14 10:00:40;;;;;;;11.45;7.00;;;;;;;;;;5071378;28;20056;-48
2021/07/14 10:03:07;;;;;;;8.15;6.18;;;;;;;;;;5072115;28;20115;-53
2021/07/14 10:05:33;;;;;;;9.40;6.90;;;;;;;;;;5072295;28;20044;-48
2021/07/14 10:08:13;;;;;;;11.85;6.60;;;;;;;;;;5071072;28;20042;-51
2021/07/14 10:10:39;;;;;;;9.82;6.95;;;;;;;;;;5071428;28;20028;-48
2021/07/14 10:13:08;;;;;;;8.93;6.85;;;;;;;;;;5073120;28;20028;-48
2021/07/14 10:15:35;;;;;;;7.10;5.90;;;;;;;;;;5070570;28;20525;-48
2021/07/14 10:18:01;;;;;;;7.18;6.47;;;;;;;;;;5071809;28;20126;-48
2021/07/14 10:20:38;;;;;;;8.50;6.53;;;;;;;;;;5071901;28;20479;-48
2021/07/14 10:23:06;;;;;;;8.80;5.95;;;;;;;;;;5070651;28;20024;-52
2021/07/14 10:25:33;;;;;;;10.00;6.07;;;;;;;;;;5071809;28;20024;-50
2021/07/14 10:27:59;;;;;;;8.13;5.57;;;;;;;;;;5071792;28;20099;-48
2021/07/14 10:30:26;;;;;;;7.55;5.18;;;;;;;;;;5071933;28;20500;-49
2021/07/14 10:32:53;;;;;;;8.70;5.85;;;;;;;;;;5071686;28;20039;-51
2021/07/14 10:35:21;;;;;;;8.85;5.65;;;;;;;;;;5070909;28;20025;-54
2021/07/14 10:37:51;;;;;;;8.85;5.35;;;;;;;;;;5067335;28;20487;-51
2021/07/14 10:40:18;;;;;;;8.55;5.57;;;;;;;;;;5071910;28;20040;-53
2021/07/14 10:42:46;;;;;;;8.27;5.93;;;;;;;;;;5072047;28;20051;-51
2021/07/14 10:45:12;;;;;;;13.43;5.80;;;;;;;;;;5072060;28;20036;-52
2021/07/14 10:47:38;;;;;;;7.72;5.22;;;;;;;;;;5071153;28;20051;-48
2021/07/14 10:50:05;;;;;;;10.30;4.95;;;;;;;;;;5070565;28;20120;-54
2021/07/14 10:52:32;;;;;;;10.13;5.22;;;;;;;;;;5071328;28;20028;-52
2021/07/14 10:54:59;;;;;;;6.47;5.35;;;;;;;;;;5072163;28;20154;-52
2021/07/14 10:57:25;;;;;;;8.95;5.82;;;;;;;;;;5070337;28;20024;-54
2021/07/14 10:59:51;;;;;;;11.85;5.65;;;;;;;;;;5071891;28;20115;-52
2021/07/14 11:02:17;;;;;;;10.20;5.22;;;;;;;;;;5071722;28;20039;-50
2021/07/14 11:04:43;;;;;;;6.78;5.65;;;;;;;;;;5071469;28;20020;-51
2021/07/14 11:07:09;;;;;;;6.00;5.25;;;;;;;;;;5071553;28;20030;-54
2021/07/14 11:09:36;;;;;;;8.60;5.47;;;;;;;;;;5071246;28;20102;-49
2021/07/14 11:12:04;;;;;;;10.10;5.00;;;;;;;;;;5073734;28;20477;-48
2021/07/14 11:14:40;;;;;;;5.95;4.18;;;;;;;;;;5070814;28;20028;-52
2021/07/14 11:17:07;;;;;;;8.77;5.10;;;;;;;;;;5071585;28;20416;-50
2021/07/14 11:19:52;;;;;;;6.35;5.15;;;;;;;;;;5072095;28;20093;-48
2021/07/14 11:22:37;;;;;;;7.25;4.88;;;;;;;;;;5072872;28;20040;-48
2021/07/14 11:25:04;;;;;;;10.82;5.00;;;;;;;;;;5075414;28;20491;-54
2021/07/14 11:27:30;;;;;;;7.25;5.07;;;;;;;;;;5075188;28;20078;-50
2021/07/14 11:30:02;;;;;;;7.13;5.57;;;;;;;;;;5074466;28;20045;-52
2021/07/14 11:32:34;;;;;;;21.70;6.13;;;;;;;;;;5074143;28;20040;-54
2021/07/14 11:35:08;;;;;;;7.38;5.90;;;;;;;;;;5075208;28;20110;-54
2021/07/14 11:37:35;;;;;;;10.52;5.75;;;;;;;;;;5069235;28;20028;-50
2021/07/14 11:40:25;;;;;;;8.80;5.43;;;;;;;;;;5075186;28;20074;-52
2021/07/14 11:42:56;;;;;;;8.23;5.07;;;;;;;;;;5075094;28;20036;-54
2021/07/14 11:45:36;;;;;;;7.88;4.38;;;;;;;;;;5075211;28;20534;-53
2021/07/14 11:48:06;;;;;;;9.98;5.22;;;;;;;;;;5072712;28;20349;-48
2021/07/14 11:50:44;;;;;;;9.00;4.93;;;;;;;;;;5074865;28;20035;-48
2021/07/14 11:53:26;;;;;;;6.20;4.88;;;;;;;;;;5074916;28;20043;-48
2021/07/14 11:56:06;;;;;;;8.60;4.70;;;;;;;;;;5074765;28;20036;-50
2021/07/14 11:58:48;;;;;;;4.78;4.28;;;;;;;;;;5074351;28;20528;-49
2021/07/14 12:01:24;;;;;;;7.95;4.45;;;;;;;;;;5073668;28;20107;-50
2021/07/14 12:04:02;;;;;;;5.70;4.93;;;;;;;;;;5074624;28;20108;-51
2021/07/14 12:06:35;;;;;;;9.00;5.00;;;;;;;;;;5074733;28;20391;-50
2021/07/14 12:09:12;;;;;;;4.88;3.95;;;;;;;;;;5073863;28;20052;-53
2021/07/14 12:11:57;;;;;;;6.05;4.75;;;;;;;;;;5075332;28;20460;-51
2021/07/14 12:14:37;;;;;;;6.15;4.53;;;;;;;;;;5066438;28;20024;-53
2021/07/14 12:17:11;;;;;;;7.85;4.80;;;;;;;;;;5071249;28;20017;-48
2021/07/14 12:19:41;;;;;;;5.10;4.15;;;;;;;;;;5074175;28;20048;-51
2021/07/14 12:22:08;;;;;;;5.70;4.50;;;;;;;;;;5070496;28;20480;-50
2021/07/14 12:24:41;;;;;;;5.15;4.40;;;;;;;;;;5074523;28;20029;-53
2021/07/14 12:27:09;;;;;;;;;;;;;;;;;;5074853;28;20028;-50
2021/07/14 12:29:35;;;;;;;5.35;4.50;;;;;;;;;;5073940;28;19954;-51
2021/07/14 12:32:01;;;;;;;8.25;5.35;;;;;;;;;;5073073;28;20081;-53
2021/07/14 12:34:28;;;;;;;5.82;4.47;;;;;;;;;;5073960;28;20028;-54
2021/07/14 12:36:54;;;;;;;6.53;4.70;;;;;;;;;;5068532;28;20491;-52
2021/07/14 12:39:21;;;;;;;10.27;6.00;;;;;;;;;;5073608;28;20024;-48
2021/07/14 12:41:49;;;;;;;7.72;5.13;;;;;;;;;;5066680;28;20025;-48
2021/07/14 12:44:16;;;;;;;7.15;5.25;;;;;;;;;;5068886;28;20029;-49
2021/07/14 12:46:42;;;;;;;7.53;5.00;;;;;;;;;;5073891;28;20028;-49
2021/07/14 12:49:09;;;;;;;7.22;5.20;;;;;;;;;;5073106;28;20031;-48
2021/07/14 12:51:35;;;;;;;6.43;4.93;;;;;;;;;;5073808;28;20030;-47
2021/07/14 12:54:01;;;;;;;6.60;4.75;;;;;;;;;;5073408;28;20033;-47
2021/07/14 12:56:28;;;;;;;6.78;4.97;;;;;;;;;;5073655;28;20632;-48
2021/07/14 12:59:04;;;;;;;8.65;4.90;;;;;;;;;;5073202;28;20069;-49
2021/07/14 13:01:30;;;;;;;7.97;4.57;;;;;;;;;;5072688;28;20541;-51
2021/07/14 13:03:59;;;;;;;6.68;5.07;;;;;;;;;;5073487;28;20440;-49
2021/07/14 13:06:28;;;;;;;6.05;5.30;;;;;;;;;;5073475;28;20081;-52
2021/07/14 13:08:55;;;;;;;6.93;4.43;;;;;;;;;;5072791;28;20106;-48
2021/07/14 13:11:21;;;;;;;6.18;4.53;;;;;;;;;;5073698;28;20464;-50
2021/07/14 13:13:48;;;;;;;7.30;4.28;;;;;;;;;;5070984;28;20529;-47
2021/07/14 13:16:23;;;;;;;4.63;4.15;;;;;;;;;;5072197;28;20025;-51
2021/07/14 13:18:52;;;;;;;9.93;4.57;;;;;;;;;;5072895;28;20020;-48
2021/07/14 13:21:20;;;;;;;8.60;4.68;;;;;;;;;;5072070;28;20060;-48
2021/07/14 13:23:46;;;;;;;6.63;5.03;;;;;;;;;;5071397;28;20077;-48
2021/07/14 13:26:19;;;;;;;11.13;4.93;;;;;;;;;;5073046;28;20032;-51
2021/07/14 13:28:45;;;;;;;5.97;4.82;;;;;;;;;;5071766;28;20032;-50
2021/07/14 13:31:12;;;;;;;7.43;4.97;;;;;;;;;;5072513;28;20094;-49
2021/07/14 13:33:39;;;;;;;5.30;4.60;;;;;;;;;;5072798;28;20027;-50
2021/07/14 13:36:06;;;;;;;7.63;4.32;;;;;;;;;;5067729;28;20086;-49
2021/07/14 13:38:37;;;;;;;4.72;4.22;;;;;;;;;;5072484;28;20035;-48
2021/07/14 13:41:12;;;;;;;7.45;4.70;;;;;;;;;;5072622;28;20020;-48
2021/07/14 13:43:39;;;;;;;7.03;4.00;;;;;;;;;;5072877;28;20103;-48
2021/07/14 13:46:05;;;;;;;5.15;4.05;;;;;;;;;;5069474;28;20604;-48
2021/07/14 13:48:32;;;;;;;4.00;3.55;;;;;;;;;;5072421;28;20052;-48
2021/07/14 13:50:58;;;;;;;6.80;3.00;;;;;;;;;;5072467;28;20107;-49
2021/07/14 13:53:29;;;;;;;3.65;2.67;;;;;;;;;;5072679;28;20055;-48
2021/07/14 13:56:02;;;;;;;3.47;2.45;;;;;;;;;;5072207;28;20517;-48
2021/07/14 13:58:28;;;;;;;3.13;2.15;;;;;;;;;;5072406;28;20027;-51
2021/07/14 14:00:57;;;;;;;5.57;2.72;;;;;;;;;;5071498;28;20028;-48
2021/07/14 14:03:23;;;;;;;2.67;2.25;;;;;;;;;;5072558;28;20054;-49
2021/07/14 14:06:02;;;;;;;7.47;2.13;;;;;;;;;;5072637;28;20031;-48
2021/07/14 14:08:28;;;;;;;4.90;2.00;;;;;;;;;;5071650;28;20059;-49
2021/07/14 14:10:55;;;;;;;3.17;1.58;;;;;;;;;;5073046;28;20111;-49
2021/07/14 14:13:28;;;;;;;2.67;1.88;;;;;;;;;;5071120;28;20045;-51
2021/07/14 14:15:54;;;;;;;3.97;2.13;;;;;;;;;;5071556;28;20107;-48
2021/07/14 14:18:20;;;;;;;4.88;2.38;;;;;;;;;;5071500;28;20078;-47
2021/07/14 14:20:46;;;;;;;3.13;2.17;;;;;;;;;;5071985;28;20427;-49
2021/07/14 14:23:12;;;;;;;4.15;2.53;;;;;;;;;;5070500;28;20090;-48
2021/07/14 14:25:40;;;;;;;2.97;2.22;;;;;;;;;;5072262;28;20056;-48
2021/07/14 14:28:15;;;;;;;4.32;2.03;;;;;;;;;;5071850;28;20460;-48
2021/07/14 14:30:43;;;;;;;4.90;1.95;;;;;;;;;;5071511;28;20107;-48
2021/07/14 14:33:09;;;;;;;2.42;1.70;;;;;;;;;;5071590;28;20052;-49
2021/07/14 14:35:36;;;;;;;4.65;2.10;;;;;;;;;;5068806;28;20042;-49
2021/07/14 14:38:03;;;;;;;3.20;2.30;;;;;;;;;;5068546;28;20064;-48
2021/07/14 14:40:30;;;;;;;4.18;2.20;;;;;;;;;;5072171;28;20400;-49
2021/07/14 14:42:56;;;;;;;4.13;2.03;;;;;;;;;;5072124;28;20060;-48
2021/07/14 14:45:23;;;;;;;3.88;2.53;;;;;;;;;;5071905;28;20059;-48